Latest Weather Observations for Parawa West

IDS60801

Issued at 7:21 pm CST Monday 4 May 2026 (issued every 10 minutes, with the page automatically refreshed every 10 minutes)

About weather observations | Map of weather stations | Latest weather observations for SA | Other Formats
Station Details ID: 023875 Name: SECOND VALLEY FOREST AWS Lat: -35.57 Lon: 138.29 Height: 341.0 m
Data from the previous 72 hours. | See also: Recent months at Parawa West
Date/Time
CST
Temp
°C
App
Temp
°C
Dew
Point
°C
Rel
Hum
%
Delta-T
°C
Wind Press
QNH
hPa
Press
MSL
hPa
Rain since
9am
mm
Dir  Spd
km/h
Gust
km/h
Spd
kts
Gust
kts
04/07:00pm 11.8 10.3 10.4 91 0.7 WSW 9 11 5 6 1018.0 1017.8 0.2
04/06:30pm 11.8 9.4 10.0 89 0.9 WSW 13 20 7 11 1017.6 1017.4 0.2
04/06:00pm 12.1 9.6 9.8 86 1.2 WSW 13 19 7 10 1017.0 1016.9 0.2
04/05:30pm 12.3 9.4 9.7 84 1.3 SW 15 26 8 14 1016.6 1016.5 0.2
04/05:00pm 12.9 10.1 10.1 83 1.5 WSW 15 24 8 13 1016.3 1016.2 0.2
04/04:30pm 13.8 11.2 10.6 81 1.7 SW 15 24 8 13 1016.1 1016.0 0.2
04/04:00pm 13.9 10.4 10.1 78 2.0 WSW 19 26 10 14 1015.7 1015.6 0.2
04/03:30pm 14.0 10.9 10.4 79 1.9 WSW 17 28 9 15 1015.4 1015.2 0.2
04/03:00pm 14.9 12.0 11.1 78 2.1 SW 17 28 9 15 1015.1 1014.9 0.2
04/02:30pm 14.9 11.8 10.3 74 2.5 W 17 24 9 13 1014.6 1014.4 0.2
04/02:00pm 14.5 11.2 9.7 73 2.5 SW 17 30 9 16 1014.5 1014.3 0.2
04/01:30pm 15.4 12.0 10.4 72 2.7 W 19 32 10 17 1014.3 1014.1 0.2
04/01:00pm 14.8 11.1 10.2 74 2.4 WSW 20 28 11 15 1014.4 1014.2 0.2
04/12:30pm 14.8 10.6 9.6 71 2.7 WSW 22 35 12 19 1014.3 1014.1 0.2
04/12:00pm 14.5 10.9 10.5 77 2.1 WSW 20 35 11 19 1014.6 1014.4 0.2
04/11:30am 14.7 12.1 10.7 77 2.1 WSW 15 32 8 17 1014.6 1014.4 0.2
04/11:00am 14.3 11.4 11.1 81 1.7 WSW 17 30 9 16 1014.4 1014.2 0.2
04/10:30am 14.2 10.1 11.4 83 1.5 WSW 24 37 13 20 1014.0 1013.9 0.2
04/10:00am 13.8 9.7 11.3 85 1.4 WSW 24 39 13 21 1013.5 1013.4 0.2
04/09:30am 12.9 9.2 11.5 91 0.8 WSW 22 33 12 18 1013.4 1013.3 0.2
04/09:00am 12.9 9.2 11.5 91 0.8 W 22 35 12 19 1013.2 1013.1 11.2
04/08:30am 12.8 9.3 11.0 89 1.0 WSW 20 33 11 18 1012.6 1012.4 11.2
04/08:00am 12.4 8.2 11.0 91 0.7 W 24 39 13 21 1011.9 1011.7 11.2
04/07:30am 12.0 8.6 11.1 94 0.5 W 20 37 11 20 1011.4 1011.2 11.2
04/07:00am 11.7 7.8 10.8 94 0.5 W 22 33 12 18 1011.1 1010.9 11.2
04/06:30am 11.9 8.7 11.1 95 0.4 W 19 32 10 17 1010.7 1010.6 11.2
04/06:00am 11.9 8.5 11.3 96 0.3 W 20 30 11 16 1010.4 1010.2 11.2
04/05:30am 11.7 7.9 11.1 96 0.3 W 22 33 12 18 1010.0 1009.8 11.2
04/05:00am 11.8 8.4 11.3 97 0.3 W 20 28 11 15 1009.9 1009.7 11.2
04/04:30am 11.8 8.4 11.3 97 0.3 W 20 32 11 17 1009.7 1009.5 11.2
04/04:00am 11.9 8.7 11.4 97 0.3 WNW 19 32 10 17 1009.4 1009.2 11.2
04/03:30am 12.0 8.8 11.8 99 0.1 WNW 20 33 11 18 1009.4 1009.2 11.2
04/03:00am 12.1 8.6 12.1 100 0.0 WNW 22 41 12 22 1009.4 1009.2 11.2
04/02:30am 11.7 8.4 11.7 100 0.0 WNW 20 39 11 21 1009.5 1009.3 11.0
04/02:00am 11.6 7.1 11.3 98 0.2 WNW 26 44 14 24 1009.5 1009.3 10.8
04/01:49am 11.9 7.1 11.7 99 0.1 WNW 28 52 15 28 1009.3 1009.1 10.8
04/01:30am 11.8 7.0 11.8 100 0.0 WNW 28 41 15 22 1009.4 1009.2 9.6
04/01:19am 11.8 6.6 11.6 99 0.1 NW 30 52 16 28 1009.3 1009.1 7.8
04/01:00am 12.0 7.9 11.5 97 0.3 NW 24 43 13 23 1009.3 1009.1 5.2
04/12:30am 11.3 7.8 10.8 97 0.3 NW 20 41 11 22 1009.7 1009.5 5.2
04/12:08am 11.8 6.9 11.3 97 0.3 NW 28 50 15 27 1009.6 1009.4 4.8
04/12:00am 11.8 7.7 11.5 98 0.2 NW 24 43 13 23 1009.5 1009.3 4.8
 
Date/Time
CST
Temp
°C
App
Temp
°C
Dew
Point
°C
Rel
Hum
%
Delta-T
°C
Wind Press
QNH
hPa
Press
MSL
hPa
Rain since
9am
mm
Dir  Spd
km/h
Gust
km/h
Spd
kts
Gust
kts
03/11:34pm 11.4 6.0 10.9 97 0.3 NW 30 50 16 27 1009.8 1009.6 4.6
03/11:30pm 11.7 6.4 11.2 97 0.3 NW 30 48 16 26 1009.7 1009.5 4.6
03/11:20pm 11.8 6.1 11.0 95 0.4 NW 32 52 17 28 1009.8 1009.6 3.2
03/11:00pm 12.0 6.5 10.6 91 0.7 NW 30 46 16 25 1010.0 1009.8 2.8
03/10:35pm 11.8 6.6 10.4 91 0.7 NW 28 46 15 25 1010.1 1009.9 2.8
03/10:30pm 11.8 6.6 10.4 91 0.7 NW 28 44 15 24 1010.2 1010.0 2.8
03/10:05pm 12.7 7.4 9.7 82 1.6 NW 28 46 15 25 1009.9 1009.7 2.0
03/10:00pm 12.7 7.4 9.9 83 1.5 NW 28 44 15 24 1010.0 1009.8 2.0
03/09:32pm 12.8 7.4 9.6 81 1.7 NW 28 48 15 26 1009.9 1009.7 2.0
03/09:30pm 12.8 7.8 9.6 81 1.7 NW 26 46 14 25 1009.9 1009.7 2.0
03/09:00pm 12.6 7.7 10.0 84 1.4 NW 26 43 14 23 1009.9 1009.7 2.0
03/08:30pm 12.4 7.2 10.3 87 1.1 NW 28 41 15 22 1009.9 1009.7 2.0
03/08:05pm 12.5 7.3 10.4 87 1.1 NW 28 48 15 26 1009.6 1009.4 2.0
03/08:00pm 12.6 7.8 10.3 86 1.2 NW 26 48 14 26 1009.5 1009.3 2.0
03/07:57pm 12.6 7.5 10.5 87 1.1 NW 28 48 15 26 1009.4 1009.2 2.0
03/07:30pm 12.5 7.7 10.4 87 1.1 NW 26 44 14 24 1009.3 1009.1 2.0
03/07:00pm 12.5 7.0 10.7 89 1.0 NW 30 52 16 28 1009.2 1009.0 2.0
03/06:30pm 12.4 7.7 10.6 89 1.0 NW 26 41 14 22 1009.0 1008.8 2.0
03/06:00pm 12.6 7.4 10.3 86 1.2 NW 28 48 15 26 1008.8 1008.6 2.0
03/05:30pm 12.3 7.1 10.2 87 1.1 NW 28 46 15 25 1008.7 1008.5 2.0
03/05:29pm 12.3 7.1 10.2 87 1.1 NW 28 46 15 25 1008.7 1008.5 2.0
03/05:00pm 11.6 7.2 10.5 93 0.6 NW 24 41 13 22 1008.5 1008.3 2.0
03/04:31pm 13.7 8.2 9.0 73 2.4 NW 28 48 15 26 1008.2 1008.0 0.8
03/04:30pm 13.6 8.1 9.1 74 2.3 NW 28 43 15 23 1008.2 1008.0 0.8
03/04:00pm 12.8 7.2 10.3 85 1.3 NW 30 50 16 27 1008.3 1008.1 0.8
03/03:30pm 14.0 8.6 9.4 74 2.4 NW 28 46 15 25 1007.9 1007.7 0.8
03/03:00pm 13.6 8.1 10.6 82 1.6 WNW 30 52 16 28 1007.9 1007.7 0.8
03/02:30pm 14.0 7.7 11.0 82 1.6 NW 35 56 19 30 1007.7 1007.5 0.4
03/02:00pm 13.7 7.9 11.4 86 1.2 NW 33 52 18 28 1007.3 1007.1 0.4
03/01:30pm 13.9 7.9 10.1 78 2.0 NW 32 52 17 28 1007.6 1007.4 0.4
03/01:00pm 12.6 6.9 11.3 92 0.7 NW 32 52 17 28 1007.9 1007.7 0.4
03/12:39pm 13.5 7.7 10.7 83 1.5 NW 32 52 17 28 1007.7 1007.5 0.0
03/12:30pm 13.4 6.4 9.8 79 1.9 NW 37 54 20 29 1007.8 1007.6 0.0
03/12:00pm 13.9 6.9 10.1 78 2.0 NW 37 65 20 35 1008.1 1007.9 0.0
03/11:30am 13.6 6.6 10.0 79 1.9 NW 37 63 20 34 1008.1 1007.9 0.0
03/11:00am 13.7 7.1 9.9 78 2.0 NW 35 57 19 31 1008.2 1008.0 0.0
03/10:30am 14.2 6.4 9.6 74 2.4 NW 41 70 22 38 1008.2 1008.0 0.0
03/10:00am 13.2 5.9 8.7 74 2.3 NW 37 59 20 32 1007.9 1007.7 0.0
03/09:30am 12.6 4.9 8.7 77 2.0 NW 39 61 21 33 1008.2 1008.0 0.0
03/09:00am 12.7 6.4 9.7 82 1.6 NW 33 52 18 28 1008.4 1008.2 11.6
03/08:30am 12.6 5.6 8.3 75 2.2 NW 35 59 19 32 1008.6 1008.4 11.6
03/08:00am 12.1 5.7 8.4 78 1.9 NW 32 61 17 33 1008.8 1008.6 11.6
03/07:31am 12.3 5.6 7.4 72 2.4 NW 32 50 17 27 1008.6 1008.4 11.6
03/07:30am 12.3 5.7 7.6 73 2.3 NW 32 50 17 27 1008.5 1008.3 11.6
03/07:00am 12.1 5.1 6.8 70 2.6 NW 33 57 18 31 1008.4 1008.2 11.6
03/06:30am 11.9 5.1 7.0 72 2.4 NW 32 56 17 30 1008.2 1008.0 11.6
03/06:04am 12.1 5.8 7.6 74 2.2 NW 30 52 16 28 1007.8 1007.6 11.6
03/06:00am 12.2 6.0 7.9 75 2.2 NW 30 46 16 25 1007.9 1007.7 11.6
03/05:32am 12.1 6.0 8.4 78 1.9 NW 30 50 16 27 1007.7 1007.5 11.6
03/05:30am 12.1 6.0 8.4 78 1.9 NW 30 48 16 26 1007.7 1007.5 11.6
03/05:00am 12.2 6.2 8.5 78 1.9 NW 30 50 16 27 1007.7 1007.5 11.6
03/04:30am 12.2 5.8 8.7 79 1.8 NW 32 54 17 29 1007.4 1007.2 11.6
03/04:00am 12.2 6.8 9.4 83 1.4 NW 28 48 15 26 1007.5 1007.3 11.6
03/03:50am 12.2 6.8 9.6 84 1.3 NW 28 46 15 25 1007.5 1007.3 11.6
03/03:30am 11.9 6.6 8.6 80 1.7 NW 26 39 14 21 1007.5 1007.3 11.6
03/03:00am 12.0 7.9 10.2 89 0.9 NW 22 35 12 19 1007.7 1007.5 11.6
03/02:30am 12.2 7.3 9.8 85 1.2 NW 26 41 14 22 1007.8 1007.6 11.6
03/02:01am 12.6 6.5 9.8 83 1.5 NW 32 52 17 28 1007.9 1007.7 11.6
03/02:00am 12.6 6.5 9.8 83 1.5 NW 32 48 17 26 1007.9 1007.7 11.6
03/01:39am 12.7 7.0 9.7 82 1.6 NW 30 50 16 27 1008.2 1008.0 11.6
03/01:30am 12.7 6.6 9.9 83 1.5 NW 32 48 17 26 1008.3 1008.1 11.6
03/01:03am 12.8 6.8 10.0 83 1.5 NW 32 52 17 28 1008.4 1008.2 11.6
03/01:00am 12.8 6.7 10.3 85 1.3 NW 33 52 18 28 1008.4 1008.2 11.6
03/12:30am 13.1 7.6 10.5 84 1.4 NW 30 50 16 27 1008.6 1008.4 11.6
03/12:00am 13.1 7.5 10.3 83 1.5 NW 30 50 16 27 1008.7 1008.5 11.6
 
Date/Time
CST
Temp
°C
App
Temp
°C
Dew
Point
°C
Rel
Hum
%
Delta-T
°C
Wind Press
QNH
hPa
Press
MSL
hPa
Rain since
9am
mm
Dir  Spd
km/h
Gust
km/h
Spd
kts
Gust
kts
02/11:53pm 13.0 7.4 10.2 83 1.5 NW 30 50 16 27 1008.7 1008.5 11.6
02/11:30pm 13.0 8.1 10.0 82 1.6 NW 26 43 14 23 1008.8 1008.6 11.6
02/11:00pm 13.2 7.0 9.5 78 1.9 NW 32 50 17 27 1009.1 1008.9 11.6
02/10:30pm 13.7 8.0 9.9 78 2.0 NW 30 50 16 27 1009.1 1008.9 11.6
02/10:07pm 13.7 8.3 9.4 75 2.2 NW 28 46 15 25 1009.2 1009.0 11.6
02/10:00pm 13.9 8.2 9.7 76 2.2 NW 30 44 16 24 1009.3 1009.1 11.6
02/09:30pm 13.8 7.6 9.3 74 2.3 NW 32 48 17 26 1009.2 1009.0 11.6
02/09:00pm 13.8 8.0 9.3 74 2.3 NW 30 46 16 25 1009.2 1009.0 11.6
02/08:30pm 14.0 8.2 9.6 75 2.3 NW 30 50 16 27 1009.1 1008.9 11.6
02/08:29pm 13.9 8.1 9.5 75 2.3 NW 30 50 16 27 1009.1 1008.9 11.6
02/08:00pm 13.7 8.8 10.1 79 1.9 NW 26 41 14 22 1008.9 1008.7 11.6
02/07:30pm 13.5 10.1 11.4 87 1.1 NW 20 33 11 18 1008.7 1008.5 11.6
02/07:00pm 13.6 9.8 11.3 86 1.2 NW 22 39 12 21 1008.7 1008.5 11.6
02/06:30pm 13.8 11.8 11.5 86 1.3 NW 13 22 7 12 1008.5 1008.3 11.6
02/06:00pm 13.6 10.8 11.5 87 1.1 NW 17 32 9 17 1008.3 1008.1 11.6
02/05:30pm 13.6 10.9 11.7 88 1.0 NW 17 32 9 17 1008.4 1008.2 11.6
02/05:00pm 14.1 10.6 12.1 88 1.1 NW 22 37 12 20 1008.4 1008.2 11.6
02/04:30pm 13.8 10.9 13.0 95 0.4 NW 20 32 11 17 1008.1 1007.9 11.6
02/04:00pm 13.6 10.4 13.0 96 0.3 NW 22 37 12 20 1007.7 1007.5 11.6
02/03:30pm 13.3 10.5 13.3 100 0.0 NW 20 33 11 18 1007.8 1007.6 11.6
02/03:00pm 12.9 11.0 12.9 100 0.0 NW 15 24 8 13 1007.9 1007.7 11.6
02/02:30pm 12.4 9.5 12.2 99 0.1 NW 19 30 10 16 1008.4 1008.2 10.8
02/02:00pm 13.1 9.5 13.1 100 0.0 NW 24 43 13 23 1007.9 1007.7 7.6
02/01:30pm 13.2 11.4 13.2 100 0.0 NW 15 22 8 12 1008.1 1007.9 5.8
02/01:00pm 12.9 10.1 12.6 98 0.2 NW 19 30 10 16 1008.4 1008.2 4.8
02/12:30pm 13.5 10.0 13.3 99 0.1 NW 24 44 13 24 1008.5 1008.3 2.4
02/12:00pm 14.4 11.6 13.1 92 0.7 NW 20 43 11 23 1008.5 1008.3 1.0
02/11:30am 14.9 11.9 13.6 92 0.7 NW 22 33 12 18 1008.4 1008.2 1.0
02/11:00am 15.2 11.0 14.6 96 0.3 NW 30 48 16 26 1008.2 1008.0 1.0
02/10:31am 16.7 12.9 14.7 88 1.2 NW 28 52 15 28 1007.6 1007.4 1.0
02/10:30am 16.8 13.3 14.6 87 1.3 NW 26 46 14 25 1007.6 1007.4 1.0
02/10:00am 16.8 16.3 14.8 88 1.2 WNW 11 28 6 15 1007.7 1007.5 1.0
02/09:30am 15.3 15.2 13.8 91 0.9 E 7 20 4 11 1008.6 1008.4 1.0
02/09:00am 15.2 15.0 13.6 90 0.9 NW 7 30 4 16 1009.0 1008.8 2.2
02/08:30am 17.7 16.7 12.2 70 3.1 NW 9 19 5 10 1008.7 1008.5 0.0
02/08:00am 19.4 17.7 9.9 54 5.2 WNW 9 20 5 11 1008.5 1008.3 0.0
02/07:30am 20.4 18.5 9.0 48 6.1 NW 9 26 5 14 1008.1 1007.9 0.0
02/07:00am 20.6 18.5 8.3 45 6.5 SW 9 19 5 10 1007.9 1007.7 0.0
02/06:30am 20.9 18.7 7.9 43 6.9 NNE 9 24 5 13 1007.8 1007.6 0.0
02/06:00am 21.1 18.9 7.7 42 7.1 NE 9 28 5 15 1007.8 1007.6 0.0
02/05:30am 21.1 18.9 8.0 43 6.9 W 9 17 5 9 1008.2 1008.0 0.0
02/05:00am 21.0 18.8 8.0 43 6.9 NE 9 28 5 15 1008.5 1008.3 0.0
02/04:30am 20.9 19.1 7.9 43 6.9 NNW 7 17 4 9 1008.6 1008.4 0.0
02/04:00am 21.0 18.8 8.0 43 6.9 NNE 9 20 5 11 1008.9 1008.7 0.0
02/03:30am 21.5 18.9 7.7 41 7.3 NNE 11 22 6 12 1009.3 1009.1 0.0
02/03:00am 21.4 19.2 8.0 42 7.1 NE 9 22 5 12 1009.7 1009.5 0.0
02/02:30am 21.2 19.4 7.8 42 7.1 NNE 7 28 4 15 1010.0 1009.8 0.0
02/02:00am 21.1 18.9 7.7 42 7.1 NNE 9 32 5 17 1010.3 1010.1 0.0
02/01:30am 21.1 19.1 7.0 40 7.3 NNE 7 24 4 13 1010.9 1010.8 0.0
02/01:00am 20.3 18.4 6.6 41 7.0 NNE 6 28 3 15 1011.3 1011.1 0.0
02/12:30am 19.9 18.1 7.0 43 6.7 NNE 6 17 3 9 1011.5 1011.3 0.0
02/12:00am 20.3 18.3 7.0 42 6.9 NNE 7 19 4 10 1011.7 1011.5 0.0
 
Date/Time
CST
Temp
°C
App
Temp
°C
Dew
Point
°C
Rel
Hum
%
Delta-T
°C
Wind Press
QNH
hPa
Press
MSL
hPa
Rain since
9am
mm
Dir  Spd
km/h
Gust
km/h
Spd
kts
Gust
kts
01/11:30pm 20.4 18.7 7.4 43 6.8 NNE 6 19 3 10 1012.1 1011.9 0.0
01/11:00pm 20.5 18.7 7.8 44 6.7 NNE 7 24 4 13 1012.5 1012.3 0.0
01/10:30pm 21.0 19.2 8.0 43 6.9 NNE 7 20 4 11 1012.8 1012.6 0.0
01/10:00pm 21.1 19.5 8.0 43 6.9 NNE 6 19 3 10 1013.1 1013.0 0.0
01/09:30pm 21.2 19.6 8.1 43 6.9 NNE 6 17 3 9 1013.3 1013.2 0.0
01/09:00pm 21.0 19.3 8.3 44 6.8 NE 7 17 4 9 1013.4 1013.3 0.0
01/08:30pm 20.2 18.9 9.2 49 5.9 NNE 6 17 3 9 1013.8 1013.7 0.0
01/08:00pm 19.2 18.7 9.4 53 5.3 NNE 2 6 1 3 1014.2 1014.0 0.0
01/07:30pm 19.9 19.4 9.5 51 5.6 SW 2 6 1 3 1014.4 1014.2 0.0

Other formats

Comma delimited format used in spreadsheet applications
http://www.bom.gov.au/fwo/IDS60801/IDS60801.94811.axf

JavaScript Object Notation format (JSON) in row-major order
http://www.bom.gov.au/fwo/IDS60801/IDS60801.94811.json

Data quality

Most of these data are generated automatically and are frequently updated. Quality checks on data are not normally performed. It is possible for incorrect values to appear. Refer to information at About Latest Weather Observations and please check the disclaimer before using these data.